Time;durP1;ratioP1;P1;durP2;ratioP2;P2;SDS_P1;SDS_P2;PMS_P1;PMS_P2;Temp;Humidity;BMP_temperature;BMP_pressure;BME280_temperature;BME280_humidity;BME280_pressure;Samples;Min_cycle;Max_cycle;Signal;HPM_P1;HPM_P2
2022/05/15 00:00:37;;;;;;;2.40;2.20;;;;;;;14.92;62.51;96757.44;5056105;28;20211;-50
2022/05/15 00:00:41;;;;;;;2.33;2.13;;;;;;;14.87;63.82;96761.63;5057318;28;20695;-50
2022/05/15 00:03:14;;;;;;;3.10;2.13;;;;;;;14.77;66.08;96758.28;5045674;28;20264;-50
2022/05/15 00:05:42;;;;;;;2.37;2.00;;;;;;;14.72;66.69;96756.13;5056705;28;20195;-49
2022/05/15 00:08:12;;;;;;;2.47;2.27;;;;;;;14.72;64.83;96756.13;5057336;28;20210;-49
2022/05/15 00:10:40;;;;;;;2.33;2.20;;;;;;;14.70;66.09;96754.63;5057117;28;20218;-50
2022/05/15 00:13:07;;;;;;;4.13;2.10;;;;;;;14.64;66.38;96753.44;5056960;28;20199;-50
2022/05/15 00:15:33;;;;;;;2.57;2.37;;;;;;;14.67;66.15;96753.09;5057316;28;20203;-49
2022/05/15 00:18:01;;;;;;;2.70;2.33;;;;;;;14.71;65.67;96746.47;5072104;28;20207;-50
2022/05/15 00:20:30;;;;;;;4.07;2.03;;;;;;;14.71;65.90;96753.59;5080191;28;20183;-50
2022/05/15 00:22:58;;;;;;;3.60;2.60;;;;;;;14.66;67.30;96750.63;5078940;28;20210;-48
2022/05/15 00:25:25;;;;;;;2.60;2.00;;;;;;;14.67;67.99;96750.44;5061801;28;20237;-50
2022/05/15 00:27:53;;;;;;;2.60;2.27;;;;;;;14.67;67.52;96753.09;5056960;28;20679;-50
2022/05/15 00:30:21;;;;;;;2.53;2.33;;;;;;;14.64;68.03;96753.44;5057705;28;20222;-50
2022/05/15 00:32:49;;;;;;;3.20;2.67;;;;;;;14.57;68.69;96746.28;5074796;28;20211;-50
2022/05/15 00:35:16;;;;;;;3.00;2.70;;;;;;;14.60;68.29;96749.44;5062473;28;20210;-50
2022/05/15 00:37:45;;;;;;;5.17;4.67;;;;;;;14.54;69.12;96744.78;5056464;28;20674;-50
2022/05/15 00:40:15;;;;;;;4.63;4.23;;;;;;;14.51;68.98;96747.78;5056255;28;20647;-50
2022/05/15 00:42:43;;;;;;;2.83;2.63;;;;;;;14.48;70.51;96741.97;5056617;28;20203;-51
2022/05/15 00:45:13;;;;;;;7.27;3.17;;;;;;;14.44;70.21;96752.94;5056401;28;20282;-50
2022/05/15 00:47:40;;;;;;;3.37;2.43;;;;;;;14.45;71.54;96748.44;5056426;28;20622;-49
2022/05/15 00:50:10;;;;;;;3.07;2.77;;;;;;;14.45;71.17;96751.09;5056334;28;20233;-50
2022/05/15 00:52:42;;;;;;;6.23;2.90;;;;;;;14.46;71.18;96752.75;5056757;28;20211;-50
2022/05/15 00:55:15;;;;;;;3.97;2.90;;;;;;;14.39;72.73;96749.09;5054987;28;20194;-49
2022/05/15 00:57:44;;;;;;;4.70;3.33;;;;;;;14.28;73.95;96752.84;5056057;28;20218;-50
2022/05/15 01:00:13;;;;;;;3.57;3.00;;;;;;;14.33;73.97;96749.72;5056719;28;20264;-49
2022/05/15 01:02:42;;;;;;;4.47;3.27;;;;;;;14.29;74.76;96749.22;5057972;28;20203;-49
2022/05/15 01:05:12;;;;;;;4.83;3.33;;;;;;;14.32;74.84;96748.03;5067456;28;20207;-49
2022/05/15 01:07:38;;;;;;;3.47;3.10;;;;;;;14.32;74.71;96746.22;5056547;28;20231;-50
2022/05/15 01:10:07;;;;;;;3.70;3.00;;;;;;;14.32;75.04;96743.56;5057172;28;20198;-50
2022/05/15 01:12:35;;;;;;;3.80;3.33;;;;;;;14.35;75.28;96745.09;5058634;28;20199;-50
2022/05/15 01:15:03;;;;;;;3.43;3.13;;;;;;;14.29;76.41;96740.41;5063990;28;20709;-49
2022/05/15 01:17:32;;;;;;;5.00;3.17;;;;;;;14.32;76.48;96745.38;5057665;28;20211;-50
2022/05/15 01:20:07;;;;;;;4.87;3.43;;;;;;;14.32;76.22;96743.56;5050442;28;20580;-50
2022/05/15 01:22:37;;;;;;;3.70;3.23;;;;;;;14.31;76.80;96741.06;5044497;28;20199;-50
2022/05/15 01:25:05;;;;;;;4.23;3.43;;;;;;;14.25;77.17;96739.06;5056103;28;20241;-50
2022/05/15 01:27:32;;;;;;;3.53;3.30;;;;;;;14.24;77.06;96737.41;5057488;28;20218;-50
2022/05/15 01:29:59;;;;;;;4.00;3.67;;;;;;;14.17;78.02;96731.88;5057866;28;20217;-50
2022/05/15 01:32:25;;;;;;;3.83;3.53;;;;;;;14.15;78.66;96730.38;5057842;28;20209;-51
2022/05/15 01:34:53;;;;;;;3.83;3.50;;;;;;;14.11;80.41;96721.91;5065529;28;20203;-50
2022/05/15 01:37:19;;;;;;;3.67;3.37;;;;;;;14.19;79.20;96731.72;5065882;28;20250;-49
2022/05/15 01:39:47;;;;;;;3.70;3.40;;;;;;;14.17;79.42;96728.41;5078020;28;20265;-51
2022/05/15 01:42:15;;;;;;;3.87;3.47;;;;;;;14.12;80.44;96720.91;5078517;28;20222;-50
2022/05/15 01:44:44;;;;;;;7.30;3.90;;;;;;;14.12;80.87;96725.41;5076524;28;20199;-50
2022/05/15 01:47:15;;;;;;;3.97;3.50;;;;;;;14.09;80.72;96723.06;5068206;28;20241;-50
2022/05/15 01:49:41;;;;;;;7.53;4.17;;;;;;;14.07;81.15;96717.06;5064876;28;20199;-49
2022/05/15 01:52:08;;;;;;;4.13;3.67;;;;;;;14.05;81.47;96732.38;5067090;28;20195;-50
2022/05/15 01:54:35;;;;;;;3.63;3.33;;;;;;;14.03;81.26;96737.84;5061308;28;20214;-50
2022/05/15 01:57:03;;;;;;;3.80;3.50;;;;;;;14.05;81.38;96724.38;5059287;28;20650;-50
2022/05/15 01:59:29;;;;;;;4.00;3.23;;;;;;;14.03;81.91;96726.38;5055654;28;20214;-50
2022/05/15 02:01:56;;;;;;;4.33;3.70;;;;;;;14.01;82.40;96731.03;5056727;28;20252;-50
2022/05/15 02:04:22;;;;;;;3.77;3.47;;;;;;;14.00;81.76;96732.00;5060561;28;20199;-50
2022/05/15 02:06:52;;;;;;;4.17;3.83;;;;;;;14.02;82.39;96733.53;5076493;28;20238;-50
2022/05/15 02:09:19;;;;;;;5.27;3.77;;;;;;;13.91;83.80;96732.00;5058350;28;20535;-50
2022/05/15 02:11:46;;;;;;;4.20;3.80;;;;;;;13.90;83.75;96726.84;5056057;28;20207;-50
2022/05/15 02:14:15;;;;;;;4.40;4.00;;;;;;;13.94;83.09;96729.00;5056799;28;20207;-50
2022/05/15 02:16:43;;;;;;;4.07;3.67;;;;;;;13.92;83.09;96736.31;5058459;28;20317;-50
2022/05/15 02:19:10;;;;;;;5.27;3.93;;;;;;;13.94;83.12;96733.50;5043791;28;20240;-50
2022/05/15 02:21:37;;;;;;;5.30;3.67;;;;;;;13.93;83.57;96732.66;5056174;28;20211;-49
2022/05/15 02:24:03;;;;;;;3.80;3.50;;;;;;;13.87;84.26;96730.66;5056135;28;20238;-49
2022/05/15 02:26:31;;;;;;;4.47;3.63;;;;;;;13.85;83.98;96729.97;5055036;28;20203;-50
2022/05/15 02:29:00;;;;;;;4.93;3.30;;;;;;;13.81;84.51;96733.97;5056604;28;20238;-49
2022/05/15 02:31:28;;;;;;;4.83;3.53;;;;;;;13.76;84.94;96735.41;5061854;28;20199;-50
2022/05/15 02:33:58;;;;;;;4.40;4.00;;;;;;;13.80;84.33;96731.47;5083999;28;20203;-50
2022/05/15 02:36:25;;;;;;;7.53;3.97;;;;;;;13.73;85.85;96730.44;5084277;28;20189;-50
2022/05/15 02:38:54;;;;;;;5.47;4.03;;;;;;;13.70;85.24;96726.28;5077611;28;20206;-50
2022/05/15 02:41:21;;;;;;;4.57;3.73;;;;;;;13.72;85.23;96726.94;5062033;28;20263;-50
2022/05/15 02:43:50;;;;;;;5.07;3.67;;;;;;;13.72;85.24;96732.25;5060665;28;20206;-50
2022/05/15 02:46:16;;;;;;;6.73;4.10;;;;;;;13.69;86.15;96724.59;5061177;28;20301;-50
2022/05/15 02:51:29;;;;;;;4.27;3.90;;;;;;;13.58;86.55;96727.53;5061051;28;20206;-50
2022/05/15 02:53:55;;;;;;;4.23;3.43;;;;;;;13.65;86.03;96733.88;5061255;28;20215;-50
2022/05/15 02:56:24;;;;;;;4.30;3.90;;;;;;;13.58;86.26;96738.16;5061247;28;20206;-50
2022/05/15 02:58:51;;;;;;;4.63;3.70;;;;;;;13.54;87.00;96739.47;5060951;28;20214;-50
2022/05/15 03:01:18;;;;;;;5.07;4.43;;;;;;;13.55;86.30;96735.00;5060317;28;20210;-49
2022/05/15 03:03:46;;;;;;;4.07;3.77;;;;;;;13.58;86.48;96743.50;5060293;28;20202;-50
2022/05/15 03:06:14;;;;;;;5.20;3.70;;;;;;;13.56;86.62;96745.47;5047763;28;20206;-50
2022/05/15 03:08:46;;;;;;;4.10;3.80;;;;;;;13.55;86.89;96741.16;5061106;28;20233;-50
2022/05/15 03:11:13;;;;;;;7.10;4.00;;;;;;;13.51;87.25;96747.78;5061200;28;20253;-50
2022/05/15 03:13:41;;;;;;;5.10;3.90;;;;;;;13.51;86.39;96746.94;5060772;28;20210;-50
2022/05/15 03:16:11;;;;;;;4.60;4.20;;;;;;;13.51;85.70;96738.97;5059485;28;20207;-49
2022/05/15 03:18:40;;;;;;;4.63;3.93;;;;;;;13.55;85.51;96743.81;5060744;28;20759;-50
2022/05/15 03:21:10;;;;;;;4.40;3.97;;;;;;;13.56;85.31;96745.47;5061193;28;20203;-52
2022/05/15 03:23:39;;;;;;;3.70;3.40;;;;;;;13.48;86.54;96740.13;5060814;28;20235;-49
2022/05/15 03:26:06;;;;;;;4.20;3.90;;;;;;;13.51;85.55;96737.13;5061069;28;20241;-50
2022/05/15 03:28:33;;;;;;;5.17;3.90;;;;;;;13.56;85.17;96744.66;5061077;28;20227;-50
2022/05/15 03:30:59;;;;;;;4.00;3.60;;;;;;;13.54;85.15;96742.13;5061306;28;20290;-50
2022/05/15 03:33:27;;;;;;;4.27;3.47;;;;;;;13.45;86.28;96743.09;5061189;28;20222;-50
2022/05/15 03:35:53;;;;;;;4.87;3.77;;;;;;;13.44;86.52;96736.13;5061184;28;20289;-50
2022/05/15 03:38:21;;;;;;;5.70;3.60;;;;;;;13.47;85.91;96743.75;5060868;28;20560;-50
2022/05/15 03:40:47;;;;;;;5.07;3.70;;;;;;;13.43;86.21;96745.06;5058363;28;20215;-51
2022/05/15 03:43:14;;;;;;;4.50;3.90;;;;;;;13.41;86.68;96747.06;5057619;28;20207;-50
2022/05/15 03:45:40;;;;;;;4.23;3.80;;;;;;;13.39;86.40;96743.75;5057467;28;20218;-50
2022/05/15 03:48:07;;;;;;;4.43;3.57;;;;;;;13.35;86.76;96747.69;5057461;28;20227;-50
2022/05/15 03:50:35;;;;;;;4.80;3.70;;;;;;;13.36;86.70;96749.34;5057726;28;20214;-50
2022/05/15 03:53:03;;;;;;;5.97;3.97;;;;;;;13.35;86.08;96758.31;5057920;28;20203;-51
2022/05/15 03:55:32;;;;;;;3.83;3.50;;;;;;;13.33;86.47;96754.97;5058371;28;20207;-51
2022/05/15 03:57:59;;;;;;;3.90;3.60;;;;;;;13.31;87.13;96751.66;5058656;28;20195;-50
2022/05/15 04:00:25;;;;;;;4.87;3.67;;;;;;;13.34;87.79;96764.63;5059528;28;20210;-50
2022/05/15 04:02:53;;;;;;;4.03;3.60;;;;;;;13.35;87.39;96763.63;5062835;28;20211;-50
2022/05/15 04:05:19;;;;;;;4.03;3.47;;;;;;;13.39;87.38;96767.66;5076700;28;20195;-50
2022/05/15 04:07:47;;;;;;;5.77;3.80;;;;;;;13.38;87.20;96763.31;5078145;28;20235;-51
2022/05/15 04:10:16;;;;;;;3.93;3.60;;;;;;;13.39;87.43;96771.09;5065525;28;20207;-49
2022/05/15 04:12:44;;;;;;;4.03;3.30;;;;;;;13.45;87.10;96767.84;5079245;28;20217;-51
2022/05/15 04:15:12;;;;;;;3.97;3.57;;;;;;;13.44;87.39;96770.66;5077873;28;20290;-50
2022/05/15 04:17:41;;;;;;;6.20;4.03;;;;;;;13.45;87.50;96769.66;5056918;28;20195;-50
2022/05/15 04:20:09;;;;;;;4.33;3.70;;;;;;;13.44;87.74;96773.31;5061007;28;20215;-49
2022/05/15 04:22:35;;;;;;;3.97;3.60;;;;;;;13.48;87.93;96773.81;5058974;28;20643;-50
2022/05/15 04:25:03;;;;;;;5.43;3.90;;;;;;;13.61;86.58;96780.38;5058335;28;20242;-50
2022/05/15 04:27:32;;;;;;;5.20;4.00;;;;;;;13.80;85.41;96771.31;5057696;28;20554;-49
2022/05/15 04:30:00;;;;;;;3.50;3.20;;;;;;;14.16;84.54;96769.28;5056687;28;20225;-49
2022/05/15 04:32:28;;;;;;;4.30;3.30;;;;;;;14.44;83.18;96768.91;5056720;28;20203;-49
2022/05/15 04:34:55;;;;;;;3.87;3.40;;;;;;;14.57;82.40;96773.72;5056467;28;20211;-50
2022/05/15 04:37:23;;;;;;;3.67;3.37;;;;;;;14.90;81.63;96780.75;5056039;28;20199;-50
2022/05/15 04:39:52;;;;;;;3.63;3.33;;;;;;;15.41;78.88;96770.69;5056528;28;20218;-50
2022/05/15 04:42:19;;;;;;;3.50;3.30;;;;;;;15.65;77.90;96778.69;5056476;28;20261;-50
2022/05/15 04:44:46;;;;;;;4.00;3.57;;;;;;;15.65;77.88;96775.19;5056351;28;20230;-50
2022/05/15 04:47:16;;;;;;;5.10;3.20;;;;;;;15.79;76.96;96772.63;5056106;28;20235;-49
2022/05/15 04:49:43;;;;;;;3.50;3.20;;;;;;;15.83;77.08;96770.47;5056357;28;20524;-49
2022/05/15 04:52:10;;;;;;;3.50;3.20;;;;;;;15.90;76.76;96774.09;5068059;28;20207;-50
2022/05/15 04:54:37;;;;;;;3.43;3.13;;;;;;;15.98;75.98;96781.25;5078129;28;20207;-50
2022/05/15 04:57:05;;;;;;;4.27;3.10;;;;;;;15.84;75.60;96775.59;5079555;28;20194;-49
2022/05/15 04:59:31;;;;;;;4.40;3.17;;;;;;;15.87;75.43;96779.78;5060783;28;20206;-50
2022/05/15 05:01:58;;;;;;;3.80;3.37;;;;;;;16.01;76.80;96778.22;5056632;28;20214;-50
2022/05/15 05:04:26;;;;;;;4.90;2.70;;;;;;;16.54;73.42;96783.63;5056202;28;20215;-50
2022/05/15 05:06:53;;;;;;;3.83;3.07;;;;;;;17.15;70.57;96782.66;5056113;28;20214;-50
2022/05/15 05:09:20;;;;;;;4.60;3.00;;;;;;;17.56;68.66;96790.31;5055602;28;20227;-49
2022/05/15 05:11:46;;;;;;;4.40;2.87;;;;;;;17.60;69.00;96787.13;5056077;28;20199;-51
2022/05/15 05:14:13;;;;;;;2.88;2.67;;;;;;;17.63;68.07;96786.75;5056009;28;20214;-50
2022/05/15 05:16:39;;;;;;;2.88;2.67;;;;;;;17.69;69.18;96793.19;5055995;28;20207;-50
2022/05/15 05:19:06;;;;;;;7.00;3.20;;;;;;;17.59;67.89;96793.47;5042540;28;20535;-50
2022/05/15 05:21:34;;;;;;;4.07;3.08;;;;;;;17.54;66.85;96793.16;5055809;28;20322;-50
2022/05/15 05:24:01;;;;;;;3.50;3.03;;;;;;;17.59;66.52;96796.16;5042037;28;20234;-50
2022/05/15 05:26:27;;;;;;;3.25;2.95;;;;;;;17.65;65.22;96799.94;5055701;28;20215;-50
2022/05/15 05:28:54;;;;;;;5.70;3.53;;;;;;;17.88;65.15;96804.22;5055341;28;20234;-49
2022/05/15 05:31:21;;;;;;;3.97;2.90;;;;;;;18.15;61.60;96808.06;5055625;28;20199;-50
2022/05/15 05:33:47;;;;;;;3.70;3.03;;;;;;;18.17;62.20;96799.84;5055466;28;20206;-50
2022/05/15 05:36:15;;;;;;;4.35;2.75;;;;;;;18.24;60.86;96795.41;5055426;28;20237;-49
2022/05/15 05:38:43;;;;;;;2.85;2.65;;;;;;;18.36;58.96;96796.56;5055212;28;20651;-50
2022/05/15 05:41:09;;;;;;;6.10;3.05;;;;;;;18.60;56.88;96790.91;5055573;28;20199;-49
2022/05/15 05:43:37;;;;;;;4.40;2.80;;;;;;;18.86;58.67;96785.84;5055088;28;20203;-50
2022/05/15 05:46:03;;;;;;;3.67;3.05;;;;;;;19.19;57.54;96790.69;5054453;28;20207;-50
2022/05/15 05:48:30;;;;;;;3.03;2.72;;;;;;;19.39;55.76;96781.78;5054933;28;20708;-49
2022/05/15 05:50:58;;;;;;;3.00;2.70;;;;;;;19.46;55.04;96781.84;5055370;28;20341;-50
2022/05/15 05:53:25;;;;;;;4.93;2.92;;;;;;;19.62;53.48;96786.94;5054835;28;20639;-50
2022/05/15 05:55:53;;;;;;;6.78;2.92;;;;;;;19.68;55.39;96780.78;5053698;28;20211;-50
2022/05/15 05:58:20;;;;;;;3.45;3.15;;;;;;;19.65;53.94;96786.56;5055058;28;20221;-50
2022/05/15 06:00:48;;;;;;;3.72;3.10;;;;;;;19.75;54.50;96789.72;5055006;28;20207;-50
2022/05/15 06:05:59;;;;;;;3.38;2.75;;;;;;;20.83;51.24;96787.09;5054998;28;20205;-50
2022/05/15 06:08:28;;;;;;;3.72;3.33;;;;;;;20.75;50.75;96781.09;5053554;28;20218;-50
2022/05/15 06:10:57;;;;;;;5.22;3.70;;;;;;;21.15;51.77;96790.13;5054835;28;20261;-49
2022/05/15 06:13:25;;;;;;;3.80;3.47;;;;;;;21.09;50.39;96788.19;5054843;28;20206;-49
2022/05/15 06:15:52;;;;;;;3.95;3.60;;;;;;;20.95;50.79;96797.25;5054836;28;20210;-50
2022/05/15 06:18:20;;;;;;;3.90;3.58;;;;;;;20.91;51.80;96787.94;5054517;28;20195;-51
2022/05/15 06:20:47;;;;;;;4.13;3.70;;;;;;;20.58;51.73;96790.56;5054649;28;20203;-49
2022/05/15 06:23:14;;;;;;;6.85;3.72;;;;;;;20.68;53.08;96793.69;5054654;28;20239;-49
2022/05/15 06:25:40;;;;;;;4.00;3.40;;;;;;;20.85;53.07;96790.44;5053274;28;20199;-50
2022/05/15 06:28:09;;;;;;;4.32;3.70;;;;;;;20.86;52.42;96791.28;5054839;28;20234;-50
2022/05/15 06:30:37;;;;;;;5.68;3.90;;;;;;;21.01;53.53;96783.03;5054832;28;20635;-50
2022/05/15 06:33:05;;;;;;;3.58;3.28;;;;;;;20.73;52.34;96786.66;5053078;28;20273;-51
2022/05/15 06:35:32;;;;;;;4.82;3.53;;;;;;;20.92;52.04;96787.75;5053194;28;20199;-51
2022/05/15 06:38:01;;;;;;;4.35;3.85;;;;;;;21.25;50.08;96790.53;5055159;28;20222;-50
2022/05/15 06:40:27;;;;;;;3.92;3.50;;;;;;;21.39;51.19;96792.19;5054595;28;20214;-50
2022/05/15 06:42:54;;;;;;;4.68;3.90;;;;;;;21.39;51.55;96794.03;5054662;28;20218;-51
2022/05/15 06:45:21;;;;;;;5.45;3.75;;;;;;;21.77;51.30;96785.13;5054464;28;20206;-51
2022/05/15 06:47:48;;;;;;;4.22;3.72;;;;;;;22.01;49.14;96797.09;5054466;28;20213;-51
2022/05/15 06:50:15;;;;;;;5.35;4.20;;;;;;;21.97;49.17;96787.78;5054586;28;20203;-50
2022/05/15 06:52:41;;;;;;;4.78;4.03;;;;;;;22.33;49.76;96787.28;5054460;28;20230;-49
2022/05/15 06:55:11;;;;;;;4.65;4.25;;;;;;;22.42;50.00;96775.22;5054453;28;20199;-50
2022/05/15 06:57:37;;;;;;;5.53;4.00;;;;;;;22.86;49.27;96784.34;5054835;28;20214;-50
2022/05/15 07:00:08;;;;;;;4.70;4.30;;;;;;;22.94;48.14;96781.41;5054465;28;20199;-51
2022/05/15 07:02:36;;;;;;;4.85;4.30;;;;;;;22.63;47.79;96776.78;5053599;28;20213;-49
2022/05/15 07:05:04;;;;;;;5.40;4.20;;;;;;;22.98;47.37;96779.94;5052982;28;20261;-50
2022/05/15 07:07:30;;;;;;;6.15;3.97;;;;;;;23.04;47.67;96779.06;5054443;28;20261;-50
2022/05/15 07:09:57;;;;;;;4.18;3.60;;;;;;;23.14;49.64;96782.09;5057464;28;20203;-49
2022/05/15 07:12:24;;;;;;;5.95;4.30;;;;;;;23.66;48.56;96775.50;5069687;28;20201;-50
2022/05/15 07:14:51;;;;;;;5.80;4.63;;;;;;;23.63;47.78;96776.75;5076731;28;20210;-50
2022/05/15 07:17:19;;;;;;;5.47;4.28;;;;;;;23.52;46.63;96777.50;5056443;28;20253;-49
2022/05/15 07:19:47;;;;;;;5.70;4.50;;;;;;;23.81;47.59;96769.75;5058235;28;20198;-50
2022/05/15 07:22:14;;;;;;;4.50;4.07;;;;;;;23.69;46.12;96765.06;5058547;28;20218;-50
2022/05/15 07:24:41;;;;;;;7.15;4.63;;;;;;;23.69;45.85;96759.69;5057690;28;20239;-49
2022/05/15 07:27:08;;;;;;;5.00;4.50;;;;;;;24.16;44.51;96768.97;5057884;28;20222;-50
2022/05/15 07:29:36;;;;;;;5.00;4.50;;;;;;;23.90;44.41;96765.69;5058092;28;20238;-49
2022/05/15 07:32:03;;;;;;;4.32;3.92;;;;;;;24.00;45.13;96766.84;5057542;28;20682;-49
2022/05/15 07:34:30;;;;;;;4.93;4.45;;;;;;;24.46;44.10;96760.94;5058028;28;20207;-50
2022/05/15 07:36:58;;;;;;;4.88;4.40;;;;;;;24.23;47.43;96755.41;5057819;28;20206;-50
2022/05/15 07:39:25;;;;;;;4.22;3.92;;;;;;;24.62;46.97;96756.78;5057729;28;20195;-49
2022/05/15 07:41:52;;;;;;;5.25;4.25;;;;;;;24.70;45.92;96754.56;5057689;28;20207;-50
2022/05/15 07:44:19;;;;;;;4.38;4.07;;;;;;;24.94;43.94;96757.41;5057494;28;20207;-50
2022/05/15 07:46:45;;;;;;;4.95;4.40;;;;;;;25.11;46.21;96753.00;5057766;28;20639;-51
2022/05/15 07:49:13;;;;;;;4.75;4.35;;;;;;;24.93;44.59;96747.63;5057530;28;20310;-50
2022/05/15 07:51:44;;;;;;;9.80;4.43;;;;;;;25.36;44.38;96750.09;5057623;28;20272;-50
2022/05/15 07:54:13;;;;;;;6.40;4.60;;;;;;;25.24;44.94;96744.66;5055950;28;20635;-50
2022/05/15 07:56:40;;;;;;;5.22;4.72;;;;;;;25.48;44.18;96738.22;5057358;28;20209;-51
2022/05/15 07:59:06;;;;;;;4.85;4.53;;;;;;;25.58;43.40;96741.19;5057082;28;20210;-50
2022/05/15 08:01:34;;;;;;;5.05;4.60;;;;;;;25.69;42.76;96744.94;5058005;28;20222;-51
2022/05/15 08:04:00;;;;;;;5.75;4.63;;;;;;;25.56;43.12;96737.06;5056946;28;20231;-50
2022/05/15 08:09:15;;;;;;;5.20;4.25;;;;;;;25.77;41.87;96730.22;5056739;28;20608;-50
2022/05/15 08:11:42;;;;;;;4.78;4.38;;;;;;;25.88;42.62;96726.69;5056860;28;20634;-50
2022/05/15 08:14:10;;;;;;;5.00;4.50;;;;;;;26.02;43.08;96728.94;5057073;28;20582;-51
2022/05/15 08:16:38;;;;;;;6.47;4.50;;;;;;;26.08;40.89;96729.84;5056894;28;20290;-49
2022/05/15 08:24:34;;;;;;;7.10;5.10;;;;;;;26.27;42.38;96709.69;5056650;28;20245;-50
2022/05/15 08:27:04;;;;;;;6.07;5.18;;;;;;;25.91;42.32;96707.25;5056318;28;20587;-49
2022/05/15 08:29:30;;;;;;;4.88;4.57;;;;;;;25.91;43.66;96709.97;5056389;28;20239;-49
2022/05/15 08:31:57;;;;;;;4.93;4.43;;;;;;;26.32;43.65;96712.53;5056823;28;20200;-50
2022/05/15 08:34:23;;;;;;;6.50;5.10;;;;;;;26.26;40.78;96709.91;5056749;28;20202;-50
2022/05/15 08:36:51;;;;;;;7.30;4.68;;;;;;;26.56;42.80;96713.25;5056345;28;20210;-50
2022/05/15 08:39:25;;;;;;;4.70;4.30;;;;;;;27.00;43.37;96708.94;5056899;28;20202;-51
2022/05/15 08:42:02;;;;;;;6.80;4.60;;;;;;;26.97;41.17;96707.53;5057775;28;20278;-50
2022/05/15 08:44:33;;;;;;;6.35;4.82;;;;;;;26.93;42.51;96708.25;5056669;28;20291;-51
2022/05/15 08:47:17;;;;;;;5.20;4.63;;;;;;;26.96;42.92;96713.22;5056664;28;20282;-50
2022/05/15 08:49:47;;;;;;;5.05;4.55;;;;;;;27.38;41.44;96711.78;5056786;28;20241;-49
2022/05/15 08:52:16;;;;;;;5.20;4.63;;;;;;;27.51;42.29;96711.47;5060845;28;20218;-50
2022/05/15 08:54:51;;;;;;;5.43;4.93;;;;;;;27.23;41.32;96713.41;5058626;28;20214;-50
2022/05/15 08:57:21;;;;;;;6.05;5.15;;;;;;;27.14;43.21;96712.97;5058630;28;20682;-49
2022/05/15 08:59:54;;;;;;;6.30;5.43;;;;;;;27.19;40.34;96713.06;5057387;28;20210;-50
2022/05/15 09:02:21;;;;;;;6.18;5.57;;;;;;;27.39;40.15;96707.13;5056905;28;20195;-49
2022/05/15 09:04:49;;;;;;;5.82;5.28;;;;;;;27.39;41.89;96705.25;5046478;28;20673;-49
2022/05/15 09:07:26;;;;;;;5.05;4.63;;;;;;;27.52;42.05;96713.13;5059790;28;20203;-50
2022/05/15 09:09:58;;;;;;;7.13;4.80;;;;;;;27.44;42.35;96710.78;5059630;28;20218;-50
2022/05/15 09:12:28;;;;;;;7.53;5.18;;;;;;;27.43;40.86;96717.28;5053812;28;20203;-49
2022/05/15 09:15:01;;;;;;;5.60;5.20;;;;;;;27.44;40.83;96709.94;5056547;28;20219;-51
2022/05/15 09:17:33;;;;;;;5.72;5.13;;;;;;;27.52;41.31;96712.28;5056078;28;20598;-50
2022/05/15 09:20:06;;;;;;;5.60;5.00;;;;;;;27.67;41.56;96697.03;5055996;28;20187;-51
2022/05/15 09:22:37;;;;;;;5.30;4.70;;;;;;;27.86;42.15;96705.72;5043217;28;20675;-50
2022/05/15 09:25:12;;;;;;;5.93;5.28;;;;;;;27.96;42.11;96702.31;5055250;28;20266;-50
2022/05/15 09:27:57;;;;;;;5.85;5.32;;;;;;;27.49;39.93;96702.72;5065545;28;20202;-50
2022/05/15 09:30:23;;;;;;;5.57;4.97;;;;;;;27.86;40.03;96707.63;5067115;28;20663;-51
2022/05/15 09:32:57;;;;;;;6.85;5.38;;;;;;;27.59;41.35;96708.34;5069133;28;20211;-50
2022/05/15 09:35:32;;;;;;;5.53;5.00;;;;;;;27.36;42.41;96710.34;5067501;28;20206;-51
2022/05/15 09:43:33;;;;;;;4.63;4.30;;;;;;;27.71;43.40;96700.06;5055394;28;20283;-50
2022/05/15 09:46:07;;;;;;;5.03;4.63;;;;;;;27.81;40.65;96702.94;5055852;28;20199;-56
2022/05/15 09:48:38;;;;;;;6.05;5.13;;;;;;;27.86;42.65;96704.91;5055109;28;20231;-52
2022/05/15 09:51:09;;;;;;;11.90;5.10;;;;;;;27.65;41.26;96701.91;5055348;28;20223;-50
2022/05/15 09:53:41;;;;;;;6.75;4.55;;;;;;;27.79;43.02;96704.25;5055696;28;20203;-50
2022/05/15 09:56:10;;;;;;;5.10;4.05;;;;;;;27.65;43.85;96699.19;5055379;28;20227;-49
2022/05/15 09:58:44;;;;;;;4.75;3.80;;;;;;;28.25;41.98;96694.84;5054905;28;20654;-50
2022/05/15 10:01:28;;;;;;;6.20;4.78;;;;;;;28.00;40.63;96692.59;5055452;28;20195;-50
2022/05/15 10:03:57;;;;;;;4.80;4.13;;;;;;;28.08;42.35;96689.47;5055268;28;20211;-50
2022/05/15 10:06:26;;;;;;;6.00;4.25;;;;;;;28.41;41.42;96683.88;5055363;28;20230;-51
2022/05/15 10:09:09;;;;;;;7.03;4.20;;;;;;;28.22;40.68;96677.16;5055110;28;20203;-49
2022/05/15 10:11:37;;;;;;;6.35;4.10;;;;;;;28.20;41.69;96676.56;5054135;28;20647;-49
2022/05/15 10:14:06;;;;;;;4.35;3.95;;;;;;;28.27;41.04;96669.03;5055013;28;20238;-50
2022/05/15 10:16:34;;;;;;;4.60;4.20;;;;;;;28.07;38.96;96676.94;5055532;28;20260;-50
2022/05/15 10:19:03;;;;;;;5.13;4.00;;;;;;;28.01;43.36;96667.06;5054748;28;20213;-50
2022/05/15 10:21:35;;;;;;;4.68;3.70;;;;;;;28.28;40.03;96669.84;5056511;28;20585;-49
2022/05/15 10:24:05;;;;;;;4.40;4.00;;;;;;;28.22;41.77;96662.72;5056768;28;20239;-55
2022/05/15 10:26:46;;;;;;;5.78;3.75;;;;;;;28.49;41.29;96653.50;5055431;28;20199;-50
2022/05/15 10:29:18;;;;;;;4.00;3.70;;;;;;;28.78;42.58;96667.72;5043061;28;20222;-51
2022/05/15 10:31:48;;;;;;;4.53;4.05;;;;;;;28.83;40.43;96658.81;5054732;28;20207;-50
2022/05/15 10:34:18;;;;;;;4.82;4.32;;;;;;;28.74;40.03;96657.59;5054781;28;20210;-50
2022/05/15 10:36:53;;;;;;;4.40;4.03;;;;;;;28.53;41.94;96656.53;5054953;28;20207;-50
2022/05/15 10:39:27;;;;;;;4.25;3.90;;;;;;;28.99;41.44;96657.84;5055018;28;20191;-50
2022/05/15 10:41:59;;;;;;;4.57;3.80;;;;;;;29.09;39.44;96655.19;5054321;28;20554;-50
2022/05/15 10:44:39;;;;;;;4.32;3.70;;;;;;;29.58;38.55;96651.25;5054157;28;20627;-50
2022/05/15 10:47:12;;;;;;;4.00;3.55;;;;;;;29.39;38.29;96643.78;5043188;28;20218;-50
2022/05/15 10:50:03;;;;;;;3.90;3.60;;;;;;;29.52;40.14;96646.84;5055043;28;20223;-50
2022/05/15 10:52:45;;;;;;;5.18;3.83;;;;;;;28.96;38.13;96644.75;5058835;28;20286;-51
2022/05/15 10:58:18;;;;;;;4.65;3.65;;;;;;;29.47;39.46;96644.13;5058585;28;20198;-49
2022/05/15 11:00:51;;;;;;;5.28;3.53;;;;;;;29.01;37.36;96634.75;5058698;28;20230;-51
2022/05/15 11:03:39;;;;;;;4.82;3.67;;;;;;;29.42;39.56;96630.44;5058912;28;20561;-51
2022/05/15 11:06:35;;;;;;;5.25;3.78;;;;;;;29.38;39.43;96623.03;5058773;28;20213;-51
2022/05/15 11:09:06;;;;;;;3.88;3.47;;;;;;;29.51;39.82;96617.94;5055745;28;20211;-49
2022/05/15 11:11:49;;;;;;;3.90;3.60;;;;;;;29.69;39.16;96624.06;5059079;28;20198;-51
2022/05/15 11:14:22;;;;;;;4.78;3.20;;;;;;;29.40;37.88;96624.44;5063939;28;20294;-50
2022/05/15 11:17:01;;;;;;;3.72;3.40;;;;;;;29.89;40.04;96607.84;5066779;28;20302;-51
2022/05/15 11:19:35;;;;;;;4.18;3.83;;;;;;;29.87;37.35;96612.72;5057617;28;20191;-51
2022/05/15 11:22:05;;;;;;;4.70;4.30;;;;;;;29.99;37.41;96613.34;5063178;28;20242;-50
2022/05/15 11:24:38;;;;;;;4.10;3.70;;;;;;;29.84;38.43;96613.22;5047904;28;20242;-50
2022/05/15 11:27:12;;;;;;;5.13;3.70;;;;;;;29.53;36.97;96617.69;5063161;28;20203;-50
2022/05/15 11:29:42;;;;;;;4.13;3.72;;;;;;;29.80;39.27;96604.75;5062011;28;20222;-50
2022/05/15 11:32:30;;;;;;;4.50;3.22;;;;;;;30.21;38.50;96608.53;5064869;28;20199;-50
2022/05/15 11:35:26;;;;;;;3.88;3.35;;;;;;;29.99;36.65;96605.16;5066004;28;20210;-52
2022/05/15 11:38:22;;;;;;;3.88;3.30;;;;;;;30.01;37.24;96605.69;5064335;28;20222;-50
2022/05/15 11:40:49;;;;;;;3.38;3.17;;;;;;;29.79;36.73;96602.31;5060178;28;20195;-49
2022/05/15 11:43:57;;;;;;;3.78;3.30;;;;;;;30.15;36.84;96601.38;5058856;28;20203;-51
2022/05/15 11:47:00;;;;;;;4.82;3.30;;;;;;;30.30;35.36;96595.97;5059100;28;20203;-51
2022/05/15 11:49:32;;;;;;;4.20;3.80;;;;;;;30.45;34.21;96596.06;5057925;28;20199;-51
2022/05/15 11:52:16;;;;;;;4.95;3.80;;;;;;;30.17;34.83;96591.03;5070778;28;20195;-51
2022/05/15 11:54:47;;;;;;;5.45;3.65;;;;;;;29.89;37.45;96584.13;5075636;28;20199;-51
2022/05/15 11:57:34;;;;;;;3.92;3.30;;;;;;;30.50;34.85;96585.13;5073599;28;20207;-50
2022/05/15 12:00:03;;;;;;;4.70;3.65;;;;;;;30.08;33.99;96574.38;5061869;28;20191;-51
2022/05/15 12:02:57;;;;;;;3.70;3.40;;;;;;;29.79;36.87;96567.69;5075217;28;20237;-50
2022/05/15 12:05:40;;;;;;;4.85;3.22;;;;;;;29.79;36.86;96575.06;5069457;28;20199;-50